Time;durP1;ratioP1;P1;durP2;ratioP2;P2;SDS_P1;SDS_P2;PMS_P1;PMS_P2;Temp;Humidity;BMP_temperature;BMP_pressure;BME280_temperature;BME280_humidity;BME280_pressure;Samples;Min_cycle;Max_cycle;Signal;HPM_P1;HPM_P2
2022/02/13 00:01:42;;;;;;;136.40;70.50;;;;;;;-3.63;98.54;100267.56;105093;1271;76140;-77
2022/02/13 00:04:08;;;;;;;129.70;70.50;;;;;;;-3.68;98.66;100267.33;105099;1271;61280;-76
2022/02/13 00:06:35;;;;;;;120.70;66.90;;;;;;;-3.71;98.76;100266.77;105091;1271;74511;-77
2022/02/13 00:09:02;;;;;;;118.40;66.00;;;;;;;-3.75;98.74;100264.30;105083;1271;61363;-76
2022/02/13 00:11:29;;;;;;;118.40;64.60;;;;;;;-3.77;98.96;100260.29;105283;1271;62003;-77
2022/02/13 00:13:55;;;;;;;110.00;62.60;;;;;;;-3.76;99.02;100260.14;105120;1270;61322;-75
2022/02/13 00:16:22;;;;;;;113.90;60.50;;;;;;;-3.76;99.12;100259.95;105092;1271;61256;-76
2022/02/13 00:18:49;;;;;;;111.60;60.40;;;;;;;-3.73;99.25;100255.64;105100;1271;61194;-76
2022/02/13 00:21:15;;;;;;;118.90;63.30;;;;;;;-3.69;99.33;100257.42;104212;1271;1003379;-76
2022/02/13 00:23:42;;;;;;;110.30;60.10;;;;;;;-3.66;99.44;100254.52;105153;1271;62350;-76
2022/02/13 00:26:08;;;;;;;116.10;63.00;;;;;;;-3.63;99.38;100250.89;105094;1271;61287;-75
2022/02/13 00:28:36;;;;;;;116.20;64.10;;;;;;;-3.63;99.25;100246.90;105049;1271;61183;-76
2022/02/13 00:31:04;;;;;;;118.40;65.00;;;;;;;-3.66;99.28;100239.21;104966;1271;73221;-76
2022/02/13 00:33:32;;;;;;;116.30;61.00;;;;;;;-3.71;99.33;100239.70;105252;1271;61257;-77
2022/02/13 00:35:58;;;;;;;115.80;62.90;;;;;;;-3.77;99.45;100236.49;105119;1271;61294;-76
2022/02/13 00:38:25;;;;;;;120.00;65.00;;;;;;;-3.82;99.54;100236.27;105088;1271;61273;-78
2022/02/13 00:40:51;;;;;;;106.90;59.40;;;;;;;-3.84;99.67;100233.81;105103;1271;61279;-77
2022/02/13 00:43:18;;;;;;;112.40;59.20;;;;;;;-3.86;99.73;100235.37;105103;1271;61122;-74
2022/02/13 00:45:44;;;;;;;107.90;61.10;;;;;;;-3.84;99.88;100230.52;104943;1272;61321;-75
2022/02/13 00:48:11;;;;;;;108.10;58.00;;;;;;;-3.81;99.91;100225.17;105057;1271;61205;-77
2022/02/13 00:50:39;;;;;;;108.20;59.60;;;;;;;-3.79;99.92;100221.20;105102;1271;75396;-77
2022/02/13 00:53:07;;;;;;;105.80;59.90;;;;;;;-3.79;99.84;100219.11;105106;1271;70378;-77
2022/02/13 00:55:34;;;;;;;117.90;62.10;;;;;;;-3.79;99.99;100216.69;104956;1271;73361;-77
2022/02/13 00:58:00;;;;;;;116.00;63.70;;;;;;;-3.77;100.00;100214.45;105022;1271;61247;-76
2022/02/13 01:00:27;;;;;;;106.40;61.00;;;;;;;-3.77;99.99;100213.76;105071;1271;62318;-77
2022/02/13 01:02:53;;;;;;;113.20;64.10;;;;;;;-3.81;100.00;100211.45;105081;1271;61272;-76
2022/02/13 01:05:20;;;;;;;114.10;63.40;;;;;;;-3.84;100.00;100209.85;105079;1271;70289;-76
2022/02/13 01:07:47;;;;;;;106.50;62.20;;;;;;;-3.88;100.00;100205.65;105056;1271;71611;-76
2022/02/13 01:10:13;;;;;;;110.30;65.20;;;;;;;-3.91;100.00;100204.58;105064;1271;61321;-77
2022/02/13 01:12:40;;;;;;;110.30;60.90;;;;;;;-3.93;100.00;100206.63;105103;1271;61169;-76
2022/02/13 01:15:07;;;;;;;100.50;58.60;;;;;;;-3.97;100.00;100200.88;105065;1271;61138;-76
2022/02/13 01:17:34;;;;;;;101.10;57.70;;;;;;;-3.99;100.00;100201.36;105075;1271;70167;-77
2022/02/13 01:20:01;;;;;;;97.40;56.20;;;;;;;-3.99;100.00;100203.27;105104;1271;73128;-76
2022/02/13 01:22:27;;;;;;;108.00;57.60;;;;;;;-3.96;100.00;100204.01;105083;1271;61360;-76
2022/02/13 01:24:54;;;;;;;103.00;58.30;;;;;;;-3.93;100.00;100194.30;105115;1271;61827;-77
2022/02/13 01:27:21;;;;;;;102.60;61.80;;;;;;;-3.92;100.00;100188.95;104973;1271;75084;-76
2022/02/13 01:29:47;;;;;;;101.60;61.40;;;;;;;-3.91;100.00;100186.00;105091;1271;61201;-75
2022/02/13 01:32:14;;;;;;;101.60;60.30;;;;;;;-3.93;100.00;100184.59;104946;1272;61269;-76
2022/02/13 01:34:41;;;;;;;115.30;60.90;;;;;;;-3.95;100.00;100180.58;105140;1271;61380;-76
2022/02/13 01:37:07;;;;;;;109.80;62.00;;;;;;;-3.98;100.00;100180.20;105096;1271;61801;-76
2022/02/13 01:39:34;;;;;;;105.70;61.00;;;;;;;-4.00;100.00;100175.66;105059;1271;74112;-76
2022/02/13 01:42:02;;;;;;;108.80;59.80;;;;;;;-4.01;100.00;100171.65;105088;1271;70183;-76
2022/02/13 01:44:32;;;;;;;103.60;58.50;;;;;;;-4.01;100.00;100162.80;104951;1271;74381;-76
2022/02/13 01:47:00;;;;;;;102.00;57.30;;;;;;;-4.02;100.00;100161.23;105286;1271;61305;-75
2022/02/13 01:49:27;;;;;;;101.10;57.30;;;;;;;-4.06;100.00;100161.36;105047;1272;61448;-75
2022/02/13 01:51:57;;;;;;;102.10;57.40;;;;;;;-4.07;100.00;100156.50;105054;1269;75052;-75
2022/02/13 01:54:24;;;;;;;103.80;60.00;;;;;;;-4.05;100.00;100150.61;105138;1271;69330;-76
2022/02/13 01:56:51;;;;;;;102.50;60.20;;;;;;;-4.04;100.00;100152.88;105135;1271;73509;-76
2022/02/13 01:59:17;;;;;;;111.50;61.70;;;;;;;-4.07;100.00;100147.13;105074;1271;61379;-75
2022/02/13 02:01:44;;;;;;;106.80;59.70;;;;;;;-4.08;100.00;100145.90;105113;1271;61165;-75
2022/02/13 02:04:11;;;;;;;106.00;60.20;;;;;;;-4.11;100.00;100144.13;105100;1271;61373;-75
2022/02/13 02:06:38;;;;;;;108.60;58.90;;;;;;;-4.14;100.00;100138.72;105092;1271;69167;-75
2022/02/13 02:09:06;;;;;;;106.10;61.60;;;;;;;-4.17;100.00;100140.79;105086;1271;74378;-76
2022/02/13 02:11:33;;;;;;;109.70;60.50;;;;;;;-4.17;100.00;100137.30;105070;1271;61332;-77
2022/02/13 02:14:00;;;;;;;99.30;57.00;;;;;;;-4.18;100.00;100133.98;105141;1271;61223;-75
2022/02/13 02:16:26;;;;;;;105.70;59.90;;;;;;;-4.20;100.00;100131.36;105046;1269;75353;-75
2022/02/13 02:18:53;;;;;;;102.70;62.70;;;;;;;-4.24;100.00;100126.98;105069;1271;69313;-77
2022/02/13 02:21:20;;;;;;;105.40;61.10;;;;;;;-4.28;100.00;100124.33;104958;1271;73415;-78
2022/02/13 02:23:46;;;;;;;94.70;56.10;;;;;;;-4.31;100.00;100116.16;104973;1271;61430;-75
2022/02/13 02:26:19;;;;;;;99.70;54.70;;;;;;;-4.32;100.00;100119.08;105131;1271;61835;-76
2022/02/13 02:28:45;;;;;;;99.40;56.60;;;;;;;-4.31;100.00;100119.61;105117;1271;75428;-76
2022/02/13 02:31:12;;;;;;;104.10;60.20;;;;;;;-4.30;100.00;100119.27;105151;1271;70924;-75
2022/02/13 02:33:39;;;;;;;103.00;60.90;;;;;;;-4.30;100.00;100115.98;105068;1271;73176;-77
2022/02/13 02:36:14;;;;;;;123.20;70.10;;;;;;;-4.32;100.00;100106.42;105087;1271;61408;-77
2022/02/13 02:38:40;;;;;;;106.80;59.30;;;;;;;-4.33;100.00;100105.02;105115;1271;62094;-76
2022/02/13 02:41:07;;;;;;;100.60;57.50;;;;;;;-4.35;100.00;100104.30;105054;1271;75608;-76
2022/02/13 02:43:33;;;;;;;98.90;58.50;;;;;;;-4.36;100.00;100103.43;105084;1271;61354;-79
2022/02/13 02:46:00;;;;;;;94.80;57.00;;;;;;;-4.36;100.00;100103.08;105092;1271;61388;-76
2022/02/13 02:48:26;;;;;;;94.20;55.30;;;;;;;-4.37;100.00;100096.30;104998;1271;61302;-75
2022/02/13 02:50:53;;;;;;;88.30;55.20;;;;;;;-4.39;100.00;100097.15;105010;1271;61268;-75
2022/02/13 02:53:19;;;;;;;101.10;59.10;;;;;;;-4.42;100.00;100095.90;105131;1271;61378;-75
2022/02/13 02:55:46;;;;;;;106.10;62.00;;;;;;;-4.47;100.00;100091.17;105283;1271;61314;-75
2022/02/13 02:58:12;;;;;;;116.60;78.60;;;;;;;-4.51;100.00;100086.45;105224;1271;61378;-75
2022/02/13 03:00:39;;;;;;;121.60;76.60;;;;;;;-4.56;100.00;100082.05;105256;1271;61374;-75
2022/02/13 03:03:06;;;;;;;100.80;61.60;;;;;;;-4.61;100.00;100073.83;105077;1271;61334;-76
2022/02/13 03:05:33;;;;;;;97.70;59.20;;;;;;;-4.66;100.00;100073.43;105103;1271;75077;-76
2022/02/13 03:08:00;;;;;;;100.20;58.30;;;;;;;-4.69;100.00;100075.48;105143;1271;70263;-75
2022/02/13 03:10:26;;;;;;;104.00;57.80;;;;;;;-4.73;100.00;100078.02;105059;1271;61388;-75
2022/02/13 03:12:53;;;;;;;96.90;58.60;;;;;;;-4.74;100.00;100077.69;105075;1269;61268;-77
2022/02/13 03:15:20;;;;;;;96.20;57.60;;;;;;;-4.72;100.00;100074.41;105106;1271;61220;-76
2022/02/13 03:17:46;;;;;;;86.00;54.50;;;;;;;-4.68;100.00;100074.27;105063;1271;76171;-76
2022/02/13 03:20:13;;;;;;;93.60;53.80;;;;;;;-4.65;100.00;100071.20;105075;1271;70199;-76
2022/02/13 03:22:39;;;;;;;101.20;57.90;;;;;;;-4.64;100.00;100065.13;105043;1271;74294;-76
2022/02/13 03:25:06;;;;;;;93.10;56.80;;;;;;;-4.66;100.00;100068.40;104972;1272;61504;-74
2022/02/13 03:27:33;;;;;;;97.00;59.00;;;;;;;-4.69;100.00;100061.95;104321;1273;1003133;-75
2022/02/13 03:29:59;;;;;;;104.20;56.80;;;;;;;-4.72;100.00;100060.88;105082;1271;61315;-74
2022/02/13 03:32:26;;;;;;;96.90;56.30;;;;;;;-4.72;100.00;100059.15;104919;1271;61302;-75
2022/02/13 03:34:53;;;;;;;93.00;55.70;;;;;;;-4.72;100.00;100060.18;105062;1271;73460;-77
2022/02/13 03:37:20;;;;;;;98.00;56.80;;;;;;;-4.72;100.00;100059.14;105008;1271;61676;-75
2022/02/13 03:39:47;;;;;;;92.70;55.60;;;;;;;-4.72;100.00;100056.89;105109;1271;61280;-74
2022/02/13 03:42:14;;;;;;;89.20;54.50;;;;;;;-4.72;100.00;100056.71;104359;1271;1003184;-75
2022/02/13 03:44:42;;;;;;;85.20;52.30;;;;;;;-4.72;100.00;100052.55;104266;1271;1002906;-74
2022/02/13 03:47:09;;;;;;;86.10;51.90;;;;;;;-4.70;100.00;100051.89;105121;1271;73160;-75
2022/02/13 03:49:35;;;;;;;86.10;52.30;;;;;;;-4.69;100.00;100051.90;104977;1271;61394;-75
2022/02/13 03:52:02;;;;;;;85.80;51.40;;;;;;;-4.68;100.00;100053.11;105087;1271;61213;-74
2022/02/13 03:54:28;;;;;;;92.50;53.80;;;;;;;-4.66;100.00;100051.23;105092;1271;75074;-75
2022/02/13 03:56:55;;;;;;;83.50;49.60;;;;;;;-4.65;100.00;100044.14;105135;1271;69121;-75
2022/02/13 03:59:22;;;;;;;82.00;51.10;;;;;;;-4.65;100.00;100041.38;105068;1271;61379;-76
2022/02/13 04:01:48;;;;;;;82.80;49.60;;;;;;;-4.63;100.00;100039.13;105086;1271;61280;-75
2022/02/13 04:04:15;;;;;;;85.60;50.30;;;;;;;-4.63;100.00;100036.53;105126;1271;61426;-76
2022/02/13 04:06:41;;;;;;;85.10;49.90;;;;;;;-4.62;100.00;100037.41;105053;1271;76073;-74
2022/02/13 04:09:08;;;;;;;83.00;50.20;;;;;;;-4.65;100.00;100035.29;105162;1271;69512;-76
2022/02/13 04:11:35;;;;;;;88.50;52.00;;;;;;;-4.65;100.00;100034.09;105110;1271;73599;-75
2022/02/13 04:14:01;;;;;;;82.10;50.60;;;;;;;-4.65;100.00;100034.09;105091;1271;61254;-77
2022/02/13 04:16:28;;;;;;;85.40;50.60;;;;;;;-4.67;100.00;100033.21;105159;1271;61342;-75
2022/02/13 04:18:54;;;;;;;85.30;50.80;;;;;;;-4.70;100.00;100027.61;105280;1271;75504;-75
2022/02/13 04:21:21;;;;;;;86.60;51.80;;;;;;;-4.74;100.00;100027.92;105171;1269;69349;-77
2022/02/13 04:23:47;;;;;;;82.20;47.40;;;;;;;-4.79;100.00;100022.83;105170;1271;72596;-76
2022/02/13 04:26:14;;;;;;;81.30;48.50;;;;;;;-4.80;100.00;100015.36;105137;1271;61364;-75
2022/02/13 04:28:41;;;;;;;81.20;50.50;;;;;;;-4.81;100.00;100013.11;105284;1271;62714;-76
2022/02/13 04:31:08;;;;;;;82.80;51.20;;;;;;;-4.79;100.00;100009.99;105464;1271;75217;-76
2022/02/13 04:33:35;;;;;;;83.20;53.10;;;;;;;-4.78;100.00;100002.57;105422;1271;70286;-75
2022/02/13 04:36:02;;;;;;;80.40;53.20;;;;;;;-4.78;100.00;100001.52;105338;1271;72566;-75
2022/02/13 04:38:29;;;;;;;88.40;56.50;;;;;;;-4.79;100.00;100002.37;105313;1271;61315;-76
2022/02/13 04:40:56;;;;;;;92.70;55.80;;;;;;;-4.80;100.00;100001.48;105090;1272;61285;-74
2022/02/13 04:43:22;;;;;;;93.90;55.60;;;;;;;-4.83;100.00;99999.04;105129;1271;74037;-78
2022/02/13 04:45:49;;;;;;;93.20;56.20;;;;;;;-4.83;100.00;99997.82;105113;1271;69405;-74
2022/02/13 04:48:16;;;;;;;93.30;57.30;;;;;;;-4.81;100.00;99990.91;105086;1271;73454;-76
2022/02/13 04:50:42;;;;;;;93.70;56.80;;;;;;;-4.77;100.00;99986.46;105113;1271;61292;-76
2022/02/13 04:53:09;;;;;;;88.70;53.90;;;;;;;-4.74;100.00;99979.90;105091;1271;61293;-76
2022/02/13 04:55:35;;;;;;;91.40;54.50;;;;;;;-4.74;100.00;99980.25;105067;1271;61282;-75
2022/02/13 04:58:04;;;;;;;88.40;53.50;;;;;;;-4.73;100.00;99978.17;105060;1271;69282;-76
2022/02/13 05:00:30;;;;;;;86.40;52.20;;;;;;;-4.71;100.00;99976.13;105072;1271;73307;-77
2022/02/13 05:02:57;;;;;;;79.50;50.80;;;;;;;-4.69;100.00;99975.44;105095;1271;61256;-77
2022/02/13 05:05:24;;;;;;;81.10;49.80;;;;;;;-4.67;100.00;99969.39;105085;1271;61197;-77
2022/02/13 05:07:50;;;;;;;78.50;50.30;;;;;;;-4.65;100.00;99969.59;105077;1271;75441;-76
2022/02/13 05:10:17;;;;;;;76.10;47.10;;;;;;;-4.63;100.00;99959.73;105088;1271;61282;-74
2022/02/13 05:12:43;;;;;;;77.30;47.10;;;;;;;-4.59;100.00;99962.53;105053;1271;74354;-78
2022/02/13 05:15:10;;;;;;;73.50;46.60;;;;;;;-4.56;100.00;99966.21;105113;1271;61397;-76
2022/02/13 05:17:37;;;;;;;76.70;46.80;;;;;;;-4.54;100.00;99964.15;105039;1271;61271;-76
2022/02/13 05:20:06;;;;;;;78.70;46.80;;;;;;;-4.52;100.00;99956.89;104909;1272;76323;-76
2022/02/13 05:22:32;;;;;;;75.20;47.50;;;;;;;-4.54;100.00;99955.83;105305;1271;70556;-75
2022/02/13 05:25:00;;;;;;;77.60;47.80;;;;;;;-4.55;100.00;99957.38;105057;1271;73500;-76
2022/02/13 05:27:27;;;;;;;80.50;48.90;;;;;;;-4.56;100.00;99949.39;105059;1271;61352;-77
2022/02/13 05:29:53;;;;;;;78.60;48.40;;;;;;;-4.60;100.00;99948.65;105097;1271;61277;-76
2022/02/13 05:32:20;;;;;;;74.40;49.20;;;;;;;-4.61;100.00;99947.42;105045;1271;61258;-76
2022/02/13 05:34:47;;;;;;;85.40;52.80;;;;;;;-4.60;100.00;99949.02;105052;1271;68738;-76
2022/02/13 05:37:14;;;;;;;88.10;51.60;;;;;;;-4.58;100.00;99944.86;104984;1271;73283;-75
2022/02/13 05:39:41;;;;;;;80.60;49.50;;;;;;;-4.56;100.00;99943.84;105028;1271;61342;-76
2022/02/13 05:42:07;;;;;;;81.40;50.00;;;;;;;-4.54;100.00;99945.94;104168;1271;1003326;-77
2022/02/13 05:44:34;;;;;;;87.40;50.00;;;;;;;-4.54;100.00;99945.41;105040;1271;61340;-78
2022/02/13 05:47:01;;;;;;;80.40;49.70;;;;;;;-4.54;100.00;99940.21;105076;1271;69103;-76
2022/02/13 05:49:28;;;;;;;76.90;46.20;;;;;;;-4.53;100.00;99935.55;105067;1271;72605;-76
2022/02/13 05:51:54;;;;;;;74.30;45.90;;;;;;;-4.52;100.00;99935.39;105035;1271;61393;-76
2022/02/13 05:54:21;;;;;;;79.90;47.50;;;;;;;-4.51;100.00;99936.95;105030;1271;61354;-75
2022/02/13 05:56:48;;;;;;;77.70;46.50;;;;;;;-4.51;100.00;99936.77;104996;1271;76431;-76
2022/02/13 05:59:15;;;;;;;78.40;46.70;;;;;;;-4.49;100.00;99938.52;105020;1271;70887;-76
2022/02/13 06:01:42;;;;;;;81.10;47.50;;;;;;;-4.50;100.00;99938.68;104234;1271;1003795;-75
2022/02/13 06:04:08;;;;;;;81.00;48.70;;;;;;;-4.52;100.00;99940.23;104988;1272;61306;-76
2022/02/13 06:06:35;;;;;;;73.30;45.20;;;;;;;-4.51;100.00;99940.23;105032;1271;61205;-76
2022/02/13 06:09:02;;;;;;;78.30;47.60;;;;;;;-4.48;100.00;99930.73;105057;1271;76610;-75
2022/02/13 06:11:29;;;;;;;77.60;45.90;;;;;;;-4.41;100.00;99932.70;105065;1272;66394;-77
2022/02/13 06:13:55;;;;;;;80.00;50.20;;;;;;;-4.37;100.00;99924.93;105045;1271;73634;-75
2022/02/13 06:16:22;;;;;;;79.70;47.30;;;;;;;-4.36;100.00;99915.74;105039;1271;61385;-76
2022/02/13 06:18:48;;;;;;;79.00;50.90;;;;;;;-4.34;100.00;99915.75;104960;1273;61402;-77
2022/02/13 06:21:15;;;;;;;78.40;47.10;;;;;;;-4.33;100.00;99916.98;105044;1271;76127;-74
2022/02/13 06:23:42;;;;;;;79.20;48.40;;;;;;;-4.31;100.00;99913.35;105081;1271;69145;-76
2022/02/13 06:26:08;;;;;;;72.30;46.80;;;;;;;-4.24;100.00;99910.46;105027;1272;61354;-76
2022/02/13 06:28:35;;;;;;;75.00;47.10;;;;;;;-4.18;100.00;99910.68;104993;1271;61470;-76
2022/02/13 06:31:01;;;;;;;78.90;49.20;;;;;;;-4.11;100.00;99911.41;105041;1271;61160;-76
2022/02/13 06:33:28;;;;;;;75.90;48.60;;;;;;;-4.06;100.00;99909.71;105051;1271;76312;-76
2022/02/13 06:35:55;;;;;;;83.80;51.40;;;;;;;-4.00;100.00;99911.32;105085;1271;70180;-76
2022/02/13 06:38:22;;;;;;;90.30;52.80;;;;;;;-3.93;100.00;99909.97;105073;1271;61289;-76
2022/02/13 06:40:48;;;;;;;92.30;54.40;;;;;;;-3.87;100.00;99906.36;105064;1271;61257;-76
2022/02/13 06:43:15;;;;;;;83.60;51.80;;;;;;;-3.80;100.00;99901.73;105080;1271;61273;-77
2022/02/13 06:45:42;;;;;;;85.30;52.30;;;;;;;-3.74;100.00;99900.72;105063;1271;74878;-75
2022/02/13 06:48:09;;;;;;;80.30;50.60;;;;;;;-3.66;100.00;99903.18;105072;1271;67461;-75
2022/02/13 06:50:36;;;;;;;81.10;50.10;;;;;;;-3.59;100.00;99896.27;105062;1271;74406;-76
2022/02/13 06:53:04;;;;;;;81.10;47.30;;;;;;;-3.50;100.00;99900.30;105099;1271;61277;-77
2022/02/13 06:55:30;;;;;;;77.60;49.20;;;;;;;-3.39;100.00;99898.44;105135;1271;61372;-76
2022/02/13 06:57:57;;;;;;;77.90;46.50;;;;;;;-3.28;100.00;99896.91;105024;1271;75270;-77
2022/02/13 07:00:25;;;;;;;77.00;48.50;;;;;;;-3.17;100.00;99900.08;105071;1271;69347;-76
2022/02/13 07:02:52;;;;;;;77.90;47.20;;;;;;;-3.08;100.00;99887.42;105101;1271;73380;-75
2022/02/13 07:05:19;;;;;;;79.90;49.20;;;;;;;-2.98;100.00;99890.58;105090;1271;61302;-76
2022/02/13 07:07:46;;;;;;;79.80;46.80;;;;;;;-2.88;100.00;99886.08;105108;1270;61977;-76
2022/02/13 07:10:13;;;;;;;78.70;47.20;;;;;;;-2.80;100.00;99882.08;105072;1271;61240;-75
2022/02/13 07:12:40;;;;;;;73.40;47.20;;;;;;;-2.71;100.00;99884.00;105059;1271;69479;-76
2022/02/13 07:15:07;;;;;;;72.40;45.20;;;;;;;-2.61;100.00;99875.33;105053;1271;73143;-76
2022/02/13 07:17:36;;;;;;;74.70;47.30;;;;;;;-2.50;100.00;99876.36;105070;1271;61288;-75
2022/02/13 07:20:07;;;;;;;82.30;49.50;;;;;;;-2.37;100.00;99877.41;105083;1271;61251;-75
2022/02/13 07:22:35;;;;;;;78.10;48.30;;;;;;;-2.25;100.00;99878.27;104637;1271;74906;-75
2022/02/13 07:25:06;;;;;;;81.60;50.80;;;;;;;-2.14;100.00;99875.46;105078;1271;69218;-77
2022/02/13 07:27:33;;;;;;;81.20;50.50;;;;;;;-2.04;100.00;99867.79;105040;1271;73406;-76
2022/02/13 07:30:00;;;;;;;81.80;49.10;;;;;;;-1.94;100.00;99867.59;105028;1271;61339;-76
2022/02/13 07:32:27;;;;;;;75.70;44.50;;;;;;;-1.85;100.00;99864.45;105048;1271;61270;-76
2022/02/13 07:34:54;;;;;;;72.70;43.80;;;;;;;-1.76;100.00;99864.07;105074;1271;75214;-75
2022/02/13 07:37:21;;;;;;;66.20;41.80;;;;;;;-1.66;100.00;99862.46;105063;1271;61386;-76
2022/02/13 07:39:49;;;;;;;78.50;47.10;;;;;;;-1.55;100.00;99855.63;105055;1271;61286;-76
2022/02/13 07:42:17;;;;;;;67.00;42.20;;;;;;;-1.43;100.00;99855.23;105014;1271;61414;-76
2022/02/13 07:44:44;;;;;;;67.20;44.00;;;;;;;-1.31;100.00;99851.34;105005;1273;61487;-77
2022/02/13 07:47:11;;;;;;;70.90;43.00;;;;;;;-1.21;100.00;99848.66;105051;1271;75050;-76
2022/02/13 07:49:37;;;;;;;74.40;46.90;;;;;;;-1.12;100.00;99845.83;105029;1271;61313;-77
2022/02/13 07:52:04;;;;;;;70.80;42.10;;;;;;;-1.03;100.00;99839.48;105041;1271;72831;-76
2022/02/13 07:54:31;;;;;;;74.60;46.70;;;;;;;-0.95;100.00;99836.30;104924;1273;61331;-76
2022/02/13 07:56:58;;;;;;;74.80;46.20;;;;;;;-0.87;100.00;99838.67;105079;1271;61257;-76
2022/02/13 07:59:25;;;;;;;69.60;43.10;;;;;;;-0.78;100.00;99844.38;105056;1272;75538;-76
2022/02/13 08:01:51;;;;;;;72.40;45.00;;;;;;;-0.68;100.00;99847.44;105034;1272;68991;-77
2022/02/13 08:04:18;;;;;;;67.70;43.10;;;;;;;-0.56;100.00;99843.86;105057;1271;74414;-75
2022/02/13 08:06:44;;;;;;;69.70;43.00;;;;;;;-0.43;100.00;99840.08;104960;1273;61898;-77
2022/02/13 08:09:13;;;;;;;72.40;45.30;;;;;;;-0.27;100.00;99847.45;105101;1271;61166;-76
2022/02/13 08:11:40;;;;;;;76.70;44.80;;;;;;;-0.11;100.00;99842.05;105084;1271;75154;-77
2022/02/13 08:14:06;;;;;;;65.80;43.80;;;;;;;-0.01;99.93;99838.11;105081;1271;68626;-75
2022/02/13 08:16:33;;;;;;;64.10;42.20;;;;;;;0.10;99.65;99837.64;105080;1271;74243;-77
2022/02/13 08:19:00;;;;;;;70.10;42.80;;;;;;;0.19;99.47;99835.79;105126;1271;61388;-77
2022/02/13 08:21:27;;;;;;;62.70;40.80;;;;;;;0.30;99.40;99830.60;105068;1271;61204;-77
2022/02/13 08:23:53;;;;;;;115.30;74.00;;;;;;;0.40;99.05;99822.61;105092;1272;75250;-78
2022/02/13 08:26:20;;;;;;;93.20;58.30;;;;;;;0.47;98.91;99823.04;104976;1273;69435;-74
2022/02/13 08:28:46;;;;;;;59.90;37.40;;;;;;;0.57;98.83;99816.63;105020;1271;74625;-76
2022/02/13 08:31:14;;;;;;;54.40;37.30;;;;;;;0.70;98.59;99823.80;105034;1271;61249;-77
2022/02/13 08:33:41;;;;;;;56.00;35.60;;;;;;;0.82;98.19;99822.24;105034;1271;61474;-76
2022/02/13 08:36:08;;;;;;;53.00;34.40;;;;;;;0.93;98.10;99820.32;105104;1271;74833;-75
2022/02/13 08:38:34;;;;;;;53.00;33.50;;;;;;;1.03;97.45;99817.55;105067;1272;70557;-76
2022/02/13 08:41:01;;;;;;;50.30;31.70;;;;;;;1.13;97.24;99814.95;105079;1273;73454;-74
2022/02/13 08:43:27;;;;;;;54.50;35.20;;;;;;;1.24;97.12;99815.48;104899;1273;61359;-77
2022/02/13 08:45:55;;;;;;;54.80;38.60;;;;;;;1.35;97.14;99813.56;105068;1271;61273;-77
2022/02/13 08:48:22;;;;;;;61.40;38.30;;;;;;;1.40;97.05;99807.89;105063;1271;75283;-76
2022/02/13 08:50:49;;;;;;;61.00;39.70;;;;;;;1.42;96.72;99805.39;104968;1274;69283;-76
2022/02/13 08:53:16;;;;;;;60.90;39.50;;;;;;;1.45;96.52;99804.64;104838;1273;71900;-75
2022/02/13 08:55:43;;;;;;;60.40;39.30;;;;;;;1.48;96.30;99806.48;105068;1271;61266;-74
2022/02/13 08:58:09;;;;;;;57.30;37.50;;;;;;;1.54;96.09;99803.79;105069;1271;61252;-75
2022/02/13 09:00:36;;;;;;;58.60;37.00;;;;;;;1.62;95.78;99799.27;105088;1273;74869;-77
2022/02/13 09:03:02;;;;;;;56.80;36.30;;;;;;;1.69;95.39;99800.00;105148;1271;68792;-75
2022/02/13 09:05:29;;;;;;;46.60;31.40;;;;;;;1.78;94.96;99799.17;105091;1271;74205;-77
2022/02/13 09:07:56;;;;;;;46.30;29.50;;;;;;;1.86;94.95;99795.85;105068;1271;61353;-76
2022/02/13 09:10:22;;;;;;;46.90;28.30;;;;;;;1.95;94.53;99789.73;105056;1272;61151;-76
2022/02/13 09:12:49;;;;;;;45.40;30.50;;;;;;;2.08;94.30;99790.35;105198;1271;75306;-76
2022/02/13 09:15:16;;;;;;;45.20;29.30;;;;;;;2.21;94.20;99788.51;105090;1271;61282;-75
2022/02/13 09:17:43;;;;;;;42.90;27.80;;;;;;;2.32;93.67;99789.52;105048;1271;73129;-77
2022/02/13 09:20:10;;;;;;;35.10;23.40;;;;;;;2.45;93.54;99787.14;104905;1273;61249;-77
2022/02/13 09:22:37;;;;;;;29.40;20.90;;;;;;;2.59;92.75;99787.18;104974;1271;61339;-75
2022/02/13 09:25:03;;;;;;;27.90;18.50;;;;;;;2.73;91.87;99786.88;105091;1271;76264;-76
2022/02/13 09:27:30;;;;;;;29.80;20.20;;;;;;;2.87;90.84;99782.72;105069;1271;70322;-78
2022/02/13 09:29:57;;;;;;;29.80;19.20;;;;;;;3.00;90.83;99780.31;105019;1273;73487;-76
2022/02/13 09:32:25;;;;;;;380.80;260.50;;;;;;;3.13;90.34;99778.42;105046;1271;61264;-76
2022/02/13 09:34:52;;;;;;;71.80;61.90;;;;;;;3.26;90.17;99779.49;105037;1272;62072;-77
2022/02/13 09:37:18;;;;;;;38.10;26.70;;;;;;;3.41;90.29;99781.78;105052;1271;61253;-76
2022/02/13 09:39:47;;;;;;;35.40;24.60;;;;;;;3.55;89.88;99781.59;105030;1273;69335;-74
2022/02/13 09:42:13;;;;;;;33.00;22.90;;;;;;;3.68;89.39;99778.45;105020;1273;72675;-78
2022/02/13 09:44:40;;;;;;;30.40;19.90;;;;;;;3.79;88.95;99778.52;105084;1271;61430;-76
2022/02/13 09:47:07;;;;;;;30.20;18.80;;;;;;;3.88;88.61;99779.66;105060;1271;61277;-75
2022/02/13 09:49:33;;;;;;;28.90;18.00;;;;;;;3.97;88.36;99780.83;105083;1271;75242;-76
2022/02/13 09:52:01;;;;;;;27.50;18.20;;;;;;;4.07;87.91;99779.86;105081;1271;69577;-77
2022/02/13 09:54:28;;;;;;;27.10;16.30;;;;;;;4.15;87.48;99775.77;105042;1271;74509;-76
2022/02/13 09:57:59;;;;;;;25.60;16.90;;;;;;;4.25;86.92;99771.77;105011;1271;61281;-77
2022/02/13 09:59:56;;;;;;;24.70;17.20;;;;;;;4.33;86.32;99765.58;105044;1271;61267;-76
2022/02/13 10:02:37;;;;;;;27.60;17.30;;;;;;;4.35;85.90;99762.00;105087;1271;76143;-76
2022/02/13 10:05:09;;;;;;;27.10;17.70;;;;;;;4.41;85.82;99757.24;105074;1271;69403;-75
2022/02/13 10:07:38;;;;;;;29.70;17.80;;;;;;;4.46;85.45;99754.13;105035;1271;73788;-77
2022/02/13 10:10:07;;;;;;;62.90;43.60;;;;;;;4.54;85.47;99748.23;105027;1271;61193;-75
2022/02/13 10:12:41;;;;;;;30.30;18.60;;;;;;;4.60;84.66;99745.77;105291;1271;61817;-76
2022/02/13 10:15:20;;;;;;;27.00;17.30;;;;;;;4.67;84.51;99744.67;105316;1271;75342;-74
2022/02/13 10:18:03;;;;;;;29.70;17.70;;;;;;;4.74;84.20;99746.22;105061;1271;68600;-76
2022/02/13 10:20:40;;;;;;;25.00;16.90;;;;;;;4.81;83.71;99742.30;105028;1271;74152;-76
2022/02/13 10:23:06;;;;;;;26.10;17.60;;;;;;;4.90;83.63;99743.41;104950;1271;61301;-75
2022/02/13 10:25:33;;;;;;;27.40;17.50;;;;;;;4.99;83.01;99736.43;105114;1271;61258;-75
2022/02/13 10:28:09;;;;;;;26.60;17.20;;;;;;;5.05;81.75;99730.44;105056;1271;76094;-76
2022/02/13 10:30:46;;;;;;;26.70;16.60;;;;;;;5.08;80.34;99725.41;105094;1271;69400;-76
2022/02/13 10:33:22;;;;;;;27.00;16.50;;;;;;;5.11;81.00;99723.01;105044;1271;73459;-77
2022/02/13 10:36:10;;;;;;;31.20;17.00;;;;;;;5.16;81.14;99718.98;105068;1271;61265;-74
2022/02/13 10:38:43;;;;;;;19.20;11.60;;;;;;;5.23;81.22;99719.08;105111;1271;61192;-74
2022/02/13 10:41:19;;;;;;;9.00;6.20;;;;;;;5.33;78.98;99717.20;105054;1271;75288;-75
2022/02/13 10:43:50;;;;;;;7.50;5.50;;;;;;;5.36;78.33;99713.90;105077;1271;69367;-75
2022/02/13 10:46:18;;;;;;;6.70;4.20;;;;;;;5.40;76.61;99703.38;104959;1273;74564;-75
2022/02/13 10:48:46;;;;;;;6.90;4.10;;;;;;;5.43;76.01;99701.66;105044;1271;61561;-76
2022/02/13 10:51:13;;;;;;;5.40;4.30;;;;;;;5.46;75.25;99698.40;104964;1272;61829;-75
2022/02/13 10:53:40;;;;;;;6.40;3.80;;;;;;;5.50;73.46;99694.21;105069;1271;76079;-75
2022/02/13 10:56:07;;;;;;;6.20;3.30;;;;;;;5.55;74.10;99689.81;105061;1271;69211;-75
2022/02/13 10:58:34;;;;;;;7.40;4.00;;;;;;;5.64;73.25;99686.50;105071;1271;73256;-75
2022/02/13 11:01:03;;;;;;;5.40;3.60;;;;;;;5.72;72.94;99678.27;105127;1272;61269;-77
2022/02/13 11:03:37;;;;;;;5.40;3.60;;;;;;;5.77;72.24;99674.38;104909;1272;62081;-76